To NAV CANADA Home Page Login to a new session Search on AWWS site Feedback and Comments Disclaimer Vers la page française équivalente Tips FAQ What's new on the site To the Forecasts and Observations / NOTAM section To "File a Flight Plan" website Publications and other links Update of the User's profile FIC Telephone Numbers My Weather Data Folder Route Weather Data Regional Weather Data Local Weather Data To the Forecasts and Observations / NOTAM section
Request Generated 04/30/2017 at 20:31:49 UTC . Weather information available at that time is displayed.

METAR/TAF

KINGSTON/ON    

METAR CYGK 302000Z 06016KT 15SM FEW015 BKN046 07/02 A3012 RMK CF1SC7
CF TR PRESFR SLP205=
METAR CYGK 301900Z 04010G16KT 15SM FEW015 OVC045 06/01 A3017 RMK
CF1SC8 CF TR SLP222=
METAR CYGK 301800Z 06013G18KT 15SM FEW015 OVC050 05/01 A3020 RMK
CU1SC7 SLP231=

TAF CYGK 301938Z 3020/0103 04012G22KT P6SM SCT015 OVC050 TEMPO
3020/3024 P6SM -SHRA OVC015
BECMG 3022/3024 05012KT
FM010000 05012KT P6SM -SHRA OVC025 TEMPO 0100/0103 4SM -SHRA BR
OVC020
RMK NXT FCST WILL BE ISSUED AT 011145Z=
Your time UTC time
Weather data provided by Environment Canada and NAV CANADA